Strona główna
METAR-TAF:

METAR-TAF

Lotnisko :

Port lotniczy Gdańsk-Rębiechowo

Gdańsk, Polska

Szerokość geograficzna: 54-23N, Długość geograficzna: 018-28E, wysokość: 135 m

Aktualna obserwacja pogody

Raport powstał 28 minut temu, godzina 16:30 UTC
Wiatr 7 kt od północny wschód, zmienny między północ i wschód
Temperatura 16°C
Wilgotność 59%
Ciśnienie 1025 hPa
Widzialność 10 km lub więcej
Brak chmur poniżej 1500 m i brak chmur cumulonimbus

METAR: EPGD 231630Z 04007KT 010V100 CAVOK 16/08 Q1025

czas: 18:58 (16:58 UTC)

Prognoza

Raport powstał 5 godziny i 28 minut temu, godzina 11:30 UTC
Prognoza ważna od 23 godzina 12 UTC do 24 godzina 12 UTC
Wiatr 7 kt od północny wschód
Widzialność 10 km lub więcej
Brak chmur poniżej 1500 m i brak chmur cumulonimbus

TAF: EPGD 231130Z 2312/2412 04007KT CAVOK

Obserwacja i prognoza pogody dla ponad 4000 lotnisk (raport METAR i TAF).

Dostępne stacje oznaczono żółtymi i czerwonymi punktami na mapie.

Najedź kursorem aby zobaczyć nazwę stacji.

Kliknij aby zobaczyć obserwacje i prognozy pogody.

Aby zmienić mapę: kliknij na zielony przycisk z czarnym krzyżykiem, aby powiększyć; na zielony przycisk z myślnikiem, aby pomniejszyć; na zielone strzałki, aby przejść do map sąsiednich.


METAR-TAF: